Time;durP1;ratioP1;P1;durP2;ratioP2;P2;SDS_P1;SDS_P2;PMS_P1;PMS_P2;Temp;Humidity;BMP_temperature;BMP_pressure;BME280_temperature;BME280_humidity;BME280_pressure;Samples;Min_cycle;Max_cycle;Signal;HPM_P1;HPM_P2
2021/03/26 00:02:12;;;;;;;21.83;11.40;;;;;;;;;;5060968;28;20040;-67
2021/03/26 00:04:38;;;;;;;32.90;12.75;;;;;;;;;;5055912;28;20111;-67
2021/03/26 00:07:03;;;;;;;23.95;12.23;;;;;;;;;;5059212;28;20043;-67
2021/03/26 00:09:29;;;;;;;22.88;12.02;;;;;;;;;;5081087;28;20081;-68
2021/03/26 00:11:56;;;;;;;27.23;12.50;;;;;;;;;;5057317;28;20055;-67
2021/03/26 00:14:22;;;;;;;24.02;12.55;;;;;;;;;;5062616;28;20032;-67
2021/03/26 00:16:47;;;;;;;22.35;13.30;;;;;;;;;;5057627;28;20031;-67
2021/03/26 00:19:12;;;;;;;29.75;14.20;;;;;;;;;;5057537;28;20050;-68
2021/03/26 00:21:38;;;;;;;24.45;14.55;;;;;;;;;;5060381;28;20017;-67
2021/03/26 00:24:03;;;;;;;32.75;15.85;;;;;;;;;;5058102;28;20021;-67
2021/03/26 00:26:29;;;;;;;30.40;15.80;;;;;;;;;;5058800;28;20462;-68
2021/03/26 00:28:54;;;;;;;30.58;15.70;;;;;;;;;;5063532;28;20025;-67
2021/03/26 00:31:19;;;;;;;34.50;15.90;;;;;;;;;;5070581;28;20374;-67
2021/03/26 00:33:45;;;;;;;34.78;17.33;;;;;;;;;;5068575;28;20052;-67
2021/03/26 00:36:10;;;;;;;37.88;18.25;;;;;;;;;;5061154;28;20424;-67
2021/03/26 00:38:36;;;;;;;35.05;18.95;;;;;;;;;;5060992;28;20029;-68
2021/03/26 00:41:02;;;;;;;42.83;18.42;;;;;;;;;;5050912;28;20368;-67
2021/03/26 00:43:27;;;;;;;44.20;18.38;;;;;;;;;;5054254;28;20074;-67
2021/03/26 00:45:52;;;;;;;36.50;18.48;;;;;;;;;;5059537;28;20032;-68
2021/03/26 00:48:19;;;;;;;41.03;19.98;;;;;;;;;;5051447;28;20032;-68
2021/03/26 00:50:46;;;;;;;39.78;20.77;;;;;;;;;;5056737;28;20033;-67
2021/03/26 00:53:13;;;;;;;39.17;19.27;;;;;;;;;;5062977;28;20067;-68
2021/03/26 00:55:38;;;;;;;37.15;18.52;;;;;;;;;;5061458;28;20033;-68
2021/03/26 00:58:04;;;;;;;46.30;21.02;;;;;;;;;;5049537;28;20093;-67
2021/03/26 01:00:30;;;;;;;42.88;20.58;;;;;;;;;;5064465;28;20025;-67
2021/03/26 01:02:56;;;;;;;35.97;20.15;;;;;;;;;;5061769;28;20017;-68
2021/03/26 01:05:23;;;;;;;38.90;20.02;;;;;;;;;;5064970;28;20039;-67
2021/03/26 01:07:48;;;;;;;49.80;20.48;;;;;;;;;;5060865;28;20024;-67
2021/03/26 01:10:16;;;;;;;38.20;17.38;;;;;;;;;;5064426;28;20028;-67
2021/03/26 01:12:41;;;;;;;41.00;20.63;;;;;;;;;;5070059;28;20024;-67
2021/03/26 01:15:08;;;;;;;43.85;20.48;;;;;;;;;;5065973;28;20477;-67
2021/03/26 01:17:33;;;;;;;43.88;21.60;;;;;;;;;;5060825;28;20029;-67
2021/03/26 01:19:58;;;;;;;40.47;21.60;;;;;;;;;;5060258;28;20048;-67
2021/03/26 01:22:23;;;;;;;45.50;22.30;;;;;;;;;;5050950;28;20028;-67
2021/03/26 01:24:49;;;;;;;41.70;22.20;;;;;;;;;;5055986;28;20470;-67
2021/03/26 01:27:14;;;;;;;42.00;20.55;;;;;;;;;;5060517;28;20150;-67
2021/03/26 01:29:39;;;;;;;42.92;20.90;;;;;;;;;;5083539;23;20031;-68
2021/03/26 01:32:04;;;;;;;39.75;20.75;;;;;;;;;;5087403;28;20023;-66
2021/03/26 01:34:30;;;;;;;42.35;21.33;;;;;;;;;;5089631;28;20032;-66
2021/03/26 01:36:55;;;;;;;48.67;21.23;;;;;;;;;;5089294;28;20027;-66
2021/03/26 01:39:20;;;;;;;43.05;19.63;;;;;;;;;;5089532;28;20027;-66
2021/03/26 01:41:48;;;;;;;35.25;19.20;;;;;;;;;;5084075;28;20434;-66
2021/03/26 01:44:14;;;;;;;37.78;19.55;;;;;;;;;;5079160;28;20468;-66
2021/03/26 01:46:39;;;;;;;38.80;19.25;;;;;;;;;;5089433;28;20031;-66
2021/03/26 01:49:05;;;;;;;37.63;17.90;;;;;;;;;;5084933;28;20174;-66
2021/03/26 01:51:33;;;;;;;33.25;18.08;;;;;;;;;;5079500;28;20031;-66
2021/03/26 01:54:00;;;;;;;37.58;19.45;;;;;;;;;;5073871;28;20062;-66
2021/03/26 01:56:26;;;;;;;41.03;19.73;;;;;;;;;;5073149;28;20032;-66
2021/03/26 01:58:51;;;;;;;43.58;19.77;;;;;;;;;;5070556;28;20020;-66
2021/03/26 02:01:19;;;;;;;37.83;20.15;;;;;;;;;;5075593;28;20039;-66
2021/03/26 02:03:45;;;;;;;42.53;20.85;;;;;;;;;;5073527;28;20016;-66
2021/03/26 02:06:31;;;;;;;41.13;21.20;;;;;;;;;;5081884;28;20021;-66
2021/03/26 02:09:10;;;;;;;44.15;19.98;;;;;;;;;;5075648;28;20032;-66
2021/03/26 02:11:44;;;;;;;36.67;19.50;;;;;;;;;;5087015;28;20036;-66
2021/03/26 02:14:11;;;;;;;37.65;19.40;;;;;;;;;;5082864;28;20029;-66
2021/03/26 02:16:37;;;;;;;40.85;17.83;;;;;;;;;;5073661;28;20572;-66
2021/03/26 02:19:02;;;;;;;37.20;18.40;;;;;;;;;;5080087;28;20016;-66
2021/03/26 02:21:29;;;;;;;47.55;19.67;;;;;;;;;;5090989;28;20107;-66
2021/03/26 02:23:55;;;;;;;38.83;19.50;;;;;;;;;;5072462;28;20050;-66
2021/03/26 02:26:23;;;;;;;36.63;19.45;;;;;;;;;;5078125;28;20388;-66
2021/03/26 02:28:49;;;;;;;39.10;19.65;;;;;;;;;;5084318;28;20641;-66
2021/03/26 02:31:15;;;;;;;38.58;20.45;;;;;;;;;;5077539;28;20114;-66
2021/03/26 02:33:40;;;;;;;37.67;20.60;;;;;;;;;;5082386;28;20039;-66
2021/03/26 02:36:17;;;;;;;43.28;20.75;;;;;;;;;;5091274;28;20028;-66
2021/03/26 02:39:03;;;;;;;40.40;21.17;;;;;;;;;;5076439;28;20013;-66
2021/03/26 02:41:39;;;;;;;36.20;18.30;;;;;;;;;;5077680;28;20031;-66
2021/03/26 02:44:20;;;;;;;36.90;16.35;;;;;;;;;;5077969;28;20069;-66
2021/03/26 02:46:48;;;;;;;40.45;19.65;;;;;;;;;;5090539;28;20024;-66
2021/03/26 02:49:18;;;;;;;44.50;20.95;;;;;;;;;;5082512;28;20016;-66
2021/03/26 02:51:48;;;;;;;49.13;21.07;;;;;;;;;;5088015;28;20104;-66
2021/03/26 02:54:13;;;;;;;40.97;21.73;;;;;;;;;;5078068;28;20051;-66
2021/03/26 02:56:45;;;;;;;34.50;19.20;;;;;;;;;;5079385;28;20047;-66
2021/03/26 02:59:18;;;;;;;50.17;22.15;;;;;;;;;;5087236;28;20335;-66
2021/03/26 03:01:45;;;;;;;32.63;16.83;;;;;;;;;;5074422;28;20025;-66
2021/03/26 03:04:15;;;;;;;32.08;17.73;;;;;;;;;;5085716;28;20023;-66
2021/03/26 03:06:49;;;;;;;58.67;24.67;;;;;;;;;;5079973;28;20472;-66
2021/03/26 03:09:14;;;;;;;45.25;16.23;;;;;;;;;;5081859;28;20046;-66
2021/03/26 03:11:40;;;;;;;38.53;16.35;;;;;;;;;;5092471;28;20520;-66
2021/03/26 03:14:19;;;;;;;37.47;16.08;;;;;;;;;;5079865;28;20023;-66
2021/03/26 03:16:54;;;;;;;32.97;16.08;;;;;;;;;;5072390;28;20048;-66
2021/03/26 03:19:32;;;;;;;26.70;14.18;;;;;;;;;;5087055;28;20054;-66
2021/03/26 03:22:30;;;;;;;32.15;15.77;;;;;;;;;;5082198;28;20024;-66
2021/03/26 03:24:59;;;;;;;38.67;17.75;;;;;;;;;;5049898;28;20109;-66
2021/03/26 03:27:30;;;;;;;39.80;17.92;;;;;;;;;;5086497;28;20103;-66
2021/03/26 03:30:02;;;;;;;34.00;16.38;;;;;;;;;;5082169;28;20056;-66
2021/03/26 03:32:27;;;;;;;38.75;19.25;;;;;;;;;;5076017;28;20547;-66
2021/03/26 03:34:57;;;;;;;39.13;19.35;;;;;;;;;;5081337;28;20102;-66
2021/03/26 03:37:28;;;;;;;41.25;18.20;;;;;;;;;;5084758;28;20304;-66
2021/03/26 03:40:01;;;;;;;39.45;18.75;;;;;;;;;;5080407;28;20091;-66
2021/03/26 03:42:42;;;;;;;34.95;17.30;;;;;;;;;;5089224;28;20069;-66
2021/03/26 03:45:20;;;;;;;32.03;15.68;;;;;;;;;;5075078;28;20365;-66
2021/03/26 03:47:50;;;;;;;32.78;16.55;;;;;;;;;;5071512;28;20032;-66
2021/03/26 03:50:21;;;;;;;31.30;15.52;;;;;;;;;;5083917;28;20059;-66
2021/03/26 03:53:06;;;;;;;30.13;15.98;;;;;;;;;;5087886;28;20028;-66
2021/03/26 03:55:36;;;;;;;34.58;15.73;;;;;;;;;;5075562;28;20081;-66
2021/03/26 03:58:11;;;;;;;31.70;15.98;;;;;;;;;;5084532;28;20412;-66
2021/03/26 04:00:42;;;;;;;34.40;16.50;;;;;;;;;;5081606;28;20028;-66
2021/03/26 04:03:29;;;;;;;33.50;16.73;;;;;;;;;;5078496;28;20066;-66
2021/03/26 04:05:59;;;;;;;33.17;16.52;;;;;;;;;;5076596;28;20032;-66
2021/03/26 04:08:30;;;;;;;34.80;16.55;;;;;;;;;;5077524;28;20034;-66
2021/03/26 04:11:02;;;;;;;40.60;19.08;;;;;;;;;;5074501;28;20051;-66
2021/03/26 04:13:30;;;;;;;39.38;17.65;;;;;;;;;;5075658;28;20093;-66
2021/03/26 04:15:58;;;;;;;43.45;19.67;;;;;;;;;;5085716;28;20036;-66
2021/03/26 04:18:23;;;;;;;35.47;17.38;;;;;;;;;;5074387;28;20017;-66
2021/03/26 04:20:54;;;;;;;41.00;19.00;;;;;;;;;;5071915;28;20020;-66
2021/03/26 04:23:22;;;;;;;43.70;21.00;;;;;;;;;;5072578;28;20013;-66
2021/03/26 04:26:06;;;;;;;50.83;22.40;;;;;;;;;;5071435;28;20507;-65
2021/03/26 04:28:33;;;;;;;41.97;19.60;;;;;;;;;;5070166;28;20048;-66
2021/03/26 04:31:01;;;;;;;48.70;21.60;;;;;;;;;;5071148;28;20089;-66
2021/03/26 04:33:26;;;;;;;50.50;20.55;;;;;;;;;;5071440;28;20078;-66
2021/03/26 04:35:52;;;;;;;40.00;18.67;;;;;;;;;;5080398;28;20020;-66
2021/03/26 04:38:30;;;;;;;37.90;17.27;;;;;;;;;;5081739;28;20591;-66
2021/03/26 04:41:00;;;;;;;53.40;23.77;;;;;;;;;;5084750;28;20034;-65
2021/03/26 04:43:44;;;;;;;36.83;19.23;;;;;;;;;;5086751;28;20016;-66
2021/03/26 04:46:10;;;;;;;37.97;17.35;;;;;;;;;;5076495;28;20391;-66
2021/03/26 04:48:54;;;;;;;39.65;19.02;;;;;;;;;;5069233;28;20024;-66
2021/03/26 04:51:23;;;;;;;45.75;18.23;;;;;;;;;;5072520;28;20274;-66
2021/03/26 04:53:50;;;;;;;35.17;17.07;;;;;;;;;;5083918;28;20036;-66
2021/03/26 04:56:19;;;;;;;42.70;19.70;;;;;;;;;;5073299;28;20032;-66
2021/03/26 04:58:48;;;;;;;45.67;19.77;;;;;;;;;;5071900;28;20063;-66
2021/03/26 05:01:14;;;;;;;47.10;18.80;;;;;;;;;;5080908;28;20069;-66
2021/03/26 05:03:42;;;;;;;36.35;17.67;;;;;;;;;;5082232;28;20020;-66
2021/03/26 05:06:07;;;;;;;38.05;18.35;;;;;;;;;;5076907;28;20473;-66
2021/03/26 05:08:33;;;;;;;37.55;19.02;;;;;;;;;;5085524;28;20046;-66
2021/03/26 05:11:00;;;;;;;39.75;18.83;;;;;;;;;;5086000;28;20066;-66
2021/03/26 05:13:42;;;;;;;38.38;18.80;;;;;;;;;;5077509;28;20661;-66
2021/03/26 05:16:10;;;;;;;39.65;18.40;;;;;;;;;;5075571;28;20037;-66
2021/03/26 05:18:38;;;;;;;39.92;17.98;;;;;;;;;;5081281;28;20074;-66
2021/03/26 05:21:10;;;;;;;41.78;18.70;;;;;;;;;;5086363;28;20078;-66
2021/03/26 05:23:42;;;;;;;46.05;20.40;;;;;;;;;;5075691;28;20021;-68
2021/03/26 05:26:07;;;;;;;45.65;19.80;;;;;;;;;;5077634;28;20020;-66
2021/03/26 05:28:36;;;;;;;35.88;19.08;;;;;;;;;;5076255;28;20020;-66
2021/03/26 05:31:22;;;;;;;41.80;21.02;;;;;;;;;;5088633;28;20092;-66
2021/03/26 05:33:48;;;;;;;60.78;26.80;;;;;;;;;;5050277;28;20071;-66
2021/03/26 05:36:27;;;;;;;62.38;26.30;;;;;;;;;;5106584;28;20430;-66
2021/03/26 05:38:54;;;;;;;59.47;28.25;;;;;;;;;;5097051;28;20027;-67
2021/03/26 05:41:36;;;;;;;62.28;25.23;;;;;;;;;;5079573;28;20043;-67
2021/03/26 05:44:20;;;;;;;71.85;26.77;;;;;;;;;;5090959;28;20028;-66
2021/03/26 05:47:04;;;;;;;62.80;28.55;;;;;;;;;;5075611;28;20020;-66
2021/03/26 05:49:40;;;;;;;58.58;23.70;;;;;;;;;;5086184;28;20055;-66
2021/03/26 05:52:24;;;;;;;86.78;31.08;;;;;;;;;;5092263;28;20031;-67
2021/03/26 05:54:52;;;;;;;54.33;26.67;;;;;;;;;;5088313;28;20032;-66
2021/03/26 05:57:17;;;;;;;42.97;20.02;;;;;;;;;;5091572;28;20020;-66
2021/03/26 05:59:48;;;;;;;43.17;20.08;;;;;;;;;;5085319;28;20020;-65
2021/03/26 06:02:26;;;;;;;60.65;29.13;;;;;;;;;;5076707;28;20062;-66
2021/03/26 06:05:09;;;;;;;67.25;30.67;;;;;;;;;;5087796;28;20072;-65
2021/03/26 06:07:46;;;;;;;59.42;26.58;;;;;;;;;;5089649;28;20107;-67
2021/03/26 06:10:18;;;;;;;62.58;28.00;;;;;;;;;;5088940;28;20060;-67
2021/03/26 06:12:46;;;;;;;66.22;29.27;;;;;;;;;;5082432;28;20197;-68
2021/03/26 06:15:23;;;;;;;68.00;30.05;;;;;;;;;;5071829;28;20033;-67
2021/03/26 06:17:51;;;;;;;54.65;23.77;;;;;;;;;;5078331;28;20460;-68
2021/03/26 06:20:34;;;;;;;64.63;27.30;;;;;;;;;;5082313;28;20051;-67
2021/03/26 06:23:07;;;;;;;63.88;27.83;;;;;;;;;;5085434;28;20023;-67
2021/03/26 06:25:43;;;;;;;60.05;24.77;;;;;;;;;;5079790;28;20043;-67
2021/03/26 06:28:22;;;;;;;61.55;27.38;;;;;;;;;;5080588;28;20032;-67
2021/03/26 06:31:06;;;;;;;63.42;25.40;;;;;;;;;;5075242;28;20075;-67
2021/03/26 06:33:40;;;;;;;51.97;22.73;;;;;;;;;;5076478;28;20062;-68
2021/03/26 06:36:11;;;;;;;60.45;26.58;;;;;;;;;;5084856;28;20020;-67
2021/03/26 06:38:43;;;;;;;65.07;23.88;;;;;;;;;;5071045;28;20032;-67
2021/03/26 06:41:27;;;;;;;53.50;17.77;;;;;;;;;;5077283;28;20051;-67
2021/03/26 06:44:11;;;;;;;36.28;15.30;;;;;;;;;;5079550;28;20032;-68
2021/03/26 06:46:40;;;;;;;46.95;22.85;;;;;;;;;;5079159;28;20025;-67
2021/03/26 06:49:25;;;;;;;47.83;19.60;;;;;;;;;;5077851;28;20021;-68
2021/03/26 06:52:20;;;;;;;59.13;28.83;;;;;;;;;;5077801;28;20386;-67
2021/03/26 06:54:45;;;;;;;52.97;26.40;;;;;;;;;;5014856;28;20410;-68
2021/03/26 06:57:23;;;;;;;47.65;22.52;;;;;;;;;;5084369;28;20016;-68
2021/03/26 07:00:06;;;;;;;51.85;26.88;;;;;;;;;;5090498;28;20037;-68
2021/03/26 07:02:47;;;;;;;43.45;17.73;;;;;;;;;;5079530;28;20020;-68
2021/03/26 07:05:12;;;;;;;;;;;;;;;;;;5080227;28;20023;-68
2021/03/26 07:08:03;;;;;;;55.15;26.38;;;;;;;;;;5092385;28;19911;-68
2021/03/26 07:10:36;;;;;;;45.65;21.23;;;;;;;;;;5058023;28;20067;-68
2021/03/26 07:13:22;;;;;;;56.45;25.02;;;;;;;;;;5080657;28;20047;-68
2021/03/26 07:16:06;;;;;;;49.15;19.27;;;;;;;;;;5052890;28;20048;-68
2021/03/26 07:18:31;;;;;;;35.70;17.77;;;;;;;;;;5071017;28;20024;-68
2021/03/26 07:21:11;;;;;;;50.58;26.33;;;;;;;;;;5072061;28;20020;-68
2021/03/26 07:23:54;;;;;;;49.67;25.60;;;;;;;;;;5073272;28;20028;-68
2021/03/26 07:26:20;;;;;;;49.80;25.45;;;;;;;;;;5081986;28;20016;-68
2021/03/26 07:28:56;;;;;;;32.10;16.10;;;;;;;;;;5071468;28;20035;-68
2021/03/26 07:31:40;;;;;;;45.42;26.60;;;;;;;;;;5102556;23;20380;-65
2021/03/26 07:34:24;;;;;;;43.90;21.40;;;;;;;;;;5090514;28;20020;-66
2021/03/26 07:36:58;;;;;;;52.17;25.80;;;;;;;;;;5091680;28;20024;-65
2021/03/26 07:39:39;;;;;;;46.90;24.77;;;;;;;;;;5093577;28;20020;-65
2021/03/26 07:42:10;;;;;;;43.60;25.98;;;;;;;;;;5090504;28;20016;-65
2021/03/26 07:44:38;;;;;;;35.92;15.20;;;;;;;;;;5093903;28;20495;-64
2021/03/26 07:47:03;;;;;;;50.53;25.02;;;;;;;;;;5091928;28;20460;-64
2021/03/26 07:50:05;;;;;;;37.67;17.40;;;;;;;;;;5091563;28;20024;-64
2021/03/26 07:52:36;;;;;;;42.63;26.25;;;;;;;;;;5090056;28;20016;-64
2021/03/26 07:55:20;;;;;;;45.60;26.73;;;;;;;;;;5089958;28;20016;-64
2021/03/26 07:58:01;;;;;;;41.38;19.58;;;;;;;;;;5090429;28;20422;-64
2021/03/26 08:00:38;;;;;;;40.90;23.05;;;;;;;;;;5089780;28;20467;-65
2021/03/26 08:03:12;;;;;;;43.55;26.33;;;;;;;;;;5090334;28;20036;-64
2021/03/26 08:05:56;;;;;;;47.88;29.00;;;;;;;;;;5089868;28;20028;-64
2021/03/26 08:08:36;;;;;;;49.25;27.23;;;;;;;;;;5090129;28;20696;-64
2021/03/26 08:11:27;;;;;;;47.63;28.25;;;;;;;;;;5090282;28;20168;-65
2021/03/26 08:14:11;;;;;;;32.65;15.50;;;;;;;;;;5089293;28;20040;-65
2021/03/26 08:16:39;;;;;;;47.88;25.83;;;;;;;;;;5082299;28;20032;-65
2021/03/26 08:19:12;;;;;;;47.45;27.85;;;;;;;;;;5090930;28;20016;-65
2021/03/26 08:21:43;;;;;;;45.13;22.08;;;;;;;;;;5090517;28;20020;-64
2021/03/26 08:24:26;;;;;;;46.20;28.45;;;;;;;;;;5085298;28;20095;-65
2021/03/26 08:27:14;;;;;;;38.80;17.15;;;;;;;;;;5087269;28;20020;-64
2021/03/26 08:29:58;;;;;;;46.58;30.15;;;;;;;;;;5089581;28;20039;-65
2021/03/26 08:32:35;;;;;;;51.00;29.73;;;;;;;;;;5089696;28;20024;-65
2021/03/26 08:35:10;;;;;;;32.20;19.05;;;;;;;;;;5089649;28;20012;-65
2021/03/26 08:37:45;;;;;;;34.92;19.00;;;;;;;;;;5085266;28;20070;-65
2021/03/26 08:40:13;;;;;;;35.88;15.73;;;;;;;;;;5090002;28;20040;-65
2021/03/26 08:42:42;;;;;;;39.90;22.15;;;;;;;;;;5090045;28;20190;-65
2021/03/26 08:45:07;;;;;;;37.08;21.48;;;;;;;;;;5089836;28;20543;-64
2021/03/26 08:47:38;;;;;;;37.28;18.75;;;;;;;;;;5087472;28;20142;-64
2021/03/26 08:50:03;;;;;;;;;;;;;;;;;;5090259;28;20024;-64
2021/03/26 08:52:47;;;;;;;42.60;25.98;;;;;;;;;;5089364;28;19999;-64
2021/03/26 08:55:25;;;;;;;36.17;18.52;;;;;;;;;;5070074;28;20020;-64
2021/03/26 08:58:02;;;;;;;33.47;15.85;;;;;;;;;;5085891;28;20190;-64
2021/03/26 09:00:32;;;;;;;48.45;21.63;;;;;;;;;;5090460;28;20020;-64
2021/03/26 09:03:22;;;;;;;46.72;23.98;;;;;;;;;;5089475;28;20392;-64
2021/03/26 09:05:47;;;;;;;45.13;27.35;;;;;;;;;;5090408;28;20020;-64
2021/03/26 09:08:31;;;;;;;32.83;18.52;;;;;;;;;;5089752;28;20380;-64
2021/03/26 09:11:17;;;;;;;45.72;21.60;;;;;;;;;;5078939;28;20016;-64
2021/03/26 09:13:54;;;;;;;34.50;15.73;;;;;;;;;;5047890;28;20032;-64
2021/03/26 09:16:19;;;;;;;42.92;20.27;;;;;;;;;;5090780;28;20100;-64
2021/03/26 09:19:03;;;;;;;29.03;15.90;;;;;;;;;;5093044;28;20099;-64
2021/03/26 09:21:46;;;;;;;41.90;23.80;;;;;;;;;;5094260;28;20325;-65
2021/03/26 09:24:30;;;;;;;41.45;23.30;;;;;;;;;;5094137;28;20039;-63
2021/03/26 09:27:13;;;;;;;37.70;20.08;;;;;;;;;;5095496;28;20051;-66
2021/03/26 09:29:48;;;;;;;40.15;20.30;;;;;;;;;;5097606;28;20024;-62
2021/03/26 09:32:13;;;;;;;39.25;20.58;;;;;;;;;;5104034;28;20031;-64
2021/03/26 09:34:45;;;;;;;33.70;16.47;;;;;;;;;;5103150;28;20028;-65
2021/03/26 09:37:23;;;;;;;22.83;9.55;;;;;;;;;;5096048;28;20258;-65
2021/03/26 09:39:51;;;;;;;35.50;20.77;;;;;;;;;;5095667;28;20020;-66
2021/03/26 09:42:24;;;;;;;27.38;11.55;;;;;;;;;;5096125;28;20507;-65
2021/03/26 09:44:56;;;;;;;33.25;12.73;;;;;;;;;;5093831;28;20020;-64
2021/03/26 09:47:28;;;;;;;36.88;18.02;;;;;;;;;;5093329;28;20036;-64
2021/03/26 09:50:00;;;;;;;33.30;19.50;;;;;;;;;;5092756;28;20051;-64
2021/03/26 09:52:28;;;;;;;23.90;13.82;;;;;;;;;;5091210;28;20740;-63
2021/03/26 09:54:54;;;;;;;18.33;9.27;;;;;;;;;;5091607;28;20145;-64
2021/03/26 09:57:22;;;;;;;24.45;15.00;;;;;;;;;;5092600;28;20467;-65
2021/03/26 09:59:47;;;;;;;36.65;17.05;;;;;;;;;;5092589;28;20021;-65
2021/03/26 10:02:18;;;;;;;31.33;18.37;;;;;;;;;;5093181;28;20023;-64
2021/03/26 10:05:00;;;;;;;19.60;9.57;;;;;;;;;;5092752;28;20618;-64
2021/03/26 10:07:34;;;;;;;33.03;18.13;;;;;;;;;;5092528;28;20020;-64
2021/03/26 10:12:50;;;;;;;35.47;18.92;;;;;;;;;;5092786;28;20063;-64
2021/03/26 10:15:20;;;;;;;32.15;17.00;;;;;;;;;;5092241;28;20077;-63
2021/03/26 10:17:48;;;;;;;30.58;16.08;;;;;;;;;;5092394;28;20512;-64
2021/03/26 10:20:27;;;;;;;24.30;11.95;;;;;;;;;;5092900;28;20595;-64
2021/03/26 10:22:58;;;;;;;29.23;14.50;;;;;;;;;;5092693;28;20082;-64
2021/03/26 10:25:42;;;;;;;25.40;16.35;;;;;;;;;;5091831;28;20111;-64
2021/03/26 10:28:19;;;;;;;25.85;14.68;;;;;;;;;;5092298;28;20024;-64
2021/03/26 10:30:47;;;;;;;16.90;8.43;;;;;;;;;;5091585;28;20111;-64
2021/03/26 10:33:13;;;;;;;23.65;13.70;;;;;;;;;;5092371;28;20099;-64
2021/03/26 10:35:40;;;;;;;26.00;13.95;;;;;;;;;;5092474;28;20032;-64
2021/03/26 10:38:09;;;;;;;23.10;12.32;;;;;;;;;;5091868;28;20016;-64
2021/03/26 10:40:35;;;;;;;16.48;7.47;;;;;;;;;;5091961;28;20488;-64
2021/03/26 10:43:12;;;;;;;16.50;6.97;;;;;;;;;;5092278;28;20058;-64
2021/03/26 10:45:46;;;;;;;14.13;6.95;;;;;;;;;;5092570;28;20024;-63
2021/03/26 10:48:20;;;;;;;6.60;3.38;;;;;;;;;;5091575;28;20012;-63
2021/03/26 10:50:48;;;;;;;14.23;5.60;;;;;;;;;;5092121;28;20028;-64
2021/03/26 10:53:17;;;;;;;13.07;5.97;;;;;;;;;;5091054;28;20023;-63
2021/03/26 10:55:52;;;;;;;13.20;6.18;;;;;;;;;;5091051;28;20442;-64
2021/03/26 10:58:26;;;;;;;11.73;5.53;;;;;;;;;;5089349;28;20027;-64
2021/03/26 11:01:29;;;;;;;9.60;4.22;;;;;;;;;;5085596;28;20023;-65
2021/03/26 11:04:04;;;;;;;13.75;5.15;;;;;;;;;;5028394;28;20512;-63
2021/03/26 11:06:37;;;;;;;11.82;4.30;;;;;;;;;;5033214;28;20023;-65
2021/03/26 11:09:09;;;;;;;16.17;4.80;;;;;;;;;;5054673;28;20037;-64
2021/03/26 11:11:53;;;;;;;11.75;4.20;;;;;;;;;;5074168;28;20074;-64
2021/03/26 11:14:36;;;;;;;14.43;4.78;;;;;;;;;;5089504;28;20529;-65
2021/03/26 11:17:14;;;;;;;13.20;4.82;;;;;;;;;;5091627;28;20020;-63
2021/03/26 11:19:42;;;;;;;11.65;4.35;;;;;;;;;;5090052;28;20016;-63
2021/03/26 11:22:17;;;;;;;10.65;4.35;;;;;;;;;;5090780;28;20019;-63
2021/03/26 11:24:44;;;;;;;13.73;5.05;;;;;;;;;;5087005;28;20016;-63
2021/03/26 11:27:16;;;;;;;19.15;5.60;;;;;;;;;;5091143;28;20460;-64
2021/03/26 11:29:44;;;;;;;10.63;5.40;;;;;;;;;;5091465;28;20016;-66
2021/03/26 11:32:15;;;;;;;9.05;4.88;;;;;;;;;;5088737;28;20503;-64
2021/03/26 11:34:40;;;;;;;19.58;6.60;;;;;;;;;;5088464;28;20028;-64
2021/03/26 11:37:22;;;;;;;14.47;5.40;;;;;;;;;;5088525;28;20490;-65
2021/03/26 11:39:56;;;;;;;20.90;6.60;;;;;;;;;;5089359;28;20020;-64
2021/03/26 11:42:22;;;;;;;20.25;9.30;;;;;;;;;;5089084;28;20016;-64
2021/03/26 11:44:55;;;;;;;13.90;4.50;;;;;;;;;;5087910;28;20070;-64
2021/03/26 11:47:26;;;;;;;13.63;6.28;;;;;;;;;;5084153;28;20281;-64
2021/03/26 11:49:57;;;;;;;16.35;6.93;;;;;;;;;;5083999;28;20020;-64
2021/03/26 11:52:22;;;;;;;6.50;3.95;;;;;;;;;;5084402;28;20057;-64
2021/03/26 11:55:12;;;;;;;12.90;5.88;;;;;;;;;;5086072;28;20561;-64
2021/03/26 11:57:48;;;;;;;14.18;6.05;;;;;;;;;;5089298;28;20038;-67
2021/03/26 12:00:22;;;;;;;12.52;7.45;;;;;;;;;;5085710;28;21714;-65
2021/03/26 12:03:06;;;;;;;15.27;5.80;;;;;;;;;;5085511;28;20024;-65
2021/03/26 12:05:32;;;;;;;8.98;5.90;;;;;;;;;;5088536;28;20468;-61
2021/03/26 12:07:57;;;;;;;13.02;5.22;;;;;;;;;;5086741;28;20030;-65
2021/03/26 12:10:25;;;;;;;11.73;6.33;;;;;;;;;;5087112;28;20036;-63
2021/03/26 12:12:55;;;;;;;10.88;5.38;;;;;;;;;;5090030;28;20180;-65
2021/03/26 12:15:30;;;;;;;18.00;6.90;;;;;;;;;;5092021;28;20035;-65
2021/03/26 12:18:15;;;;;;;15.80;4.75;;;;;;;;;;5088881;28;20020;-64
2021/03/26 12:20:41;;;;;;;16.70;4.63;;;;;;;;;;5089477;28;20111;-66
2021/03/26 12:23:19;;;;;;;6.85;4.63;;;;;;;;;;5091356;28;20036;-66
2021/03/26 12:25:49;;;;;;;12.23;5.38;;;;;;;;;;5086608;28;20024;-63
2021/03/26 12:28:31;;;;;;;8.48;5.07;;;;;;;;;;5090510;28;20305;-65
2021/03/26 12:30:59;;;;;;;11.10;5.55;;;;;;;;;;5086969;28;20024;-66
2021/03/26 12:33:27;;;;;;;12.70;5.10;;;;;;;;;;5087205;28;20452;-62
2021/03/26 12:36:07;;;;;;;10.40;4.35;;;;;;;;;;5091490;28;20012;-64
2021/03/26 12:38:53;;;;;;;14.02;6.07;;;;;;;;;;5083332;28;20147;-64
2021/03/26 12:41:34;;;;;;;10.35;3.88;;;;;;;;;;5046075;28;20020;-64
2021/03/26 12:44:02;;;;;;;5.82;3.20;;;;;;;;;;5084536;28;20066;-64
2021/03/26 12:46:46;;;;;;;11.35;4.45;;;;;;;;;;5087209;28;20077;-64
2021/03/26 12:49:15;;;;;;;17.95;4.78;;;;;;;;;;5087568;28;20107;-64
2021/03/26 12:51:59;;;;;;;4.43;2.58;;;;;;;;;;5088430;28;20472;-65
2021/03/26 12:54:40;;;;;;;10.63;3.35;;;;;;;;;;5087538;28;20032;-68
2021/03/26 12:57:14;;;;;;;11.15;4.20;;;;;;;;;;5089564;28;20096;-64
2021/03/26 12:59:44;;;;;;;6.68;3.33;;;;;;;;;;5087806;28;20126;-63
2021/03/26 13:02:12;;;;;;;6.38;4.47;;;;;;;;;;5088915;28;20433;-67
2021/03/26 13:04:44;;;;;;;12.38;2.75;;;;;;;;;;5086667;28;20020;-62
2021/03/26 13:07:24;;;;;;;8.38;4.03;;;;;;;;;;5085534;28;20076;-64
2021/03/26 13:10:13;;;;;;;6.57;3.67;;;;;;;;;;5087774;28;20020;-62
2021/03/26 13:12:39;;;;;;;9.95;3.95;;;;;;;;;;5086324;28;20372;-62
2021/03/26 13:15:14;;;;;;;12.50;5.07;;;;;;;;;;5084703;28;20071;-64
2021/03/26 13:17:39;;;;;;;3.70;2.08;;;;;;;;;;5087492;28;20130;-67
2021/03/26 13:20:06;;;;;;;9.37;3.60;;;;;;;;;;5088650;28;20012;-64
2021/03/26 13:22:48;;;;;;;8.57;3.90;;;;;;;;;;5085319;28;20278;-63
2021/03/26 13:25:16;;;;;;;10.45;4.75;;;;;;;;;;5086067;28;20020;-63
2021/03/26 13:27:48;;;;;;;18.13;4.43;;;;;;;;;;5088151;28;20028;-63
2021/03/26 13:30:14;;;;;;;7.43;3.40;;;;;;;;;;5088425;28;20430;-61
2021/03/26 13:32:58;;;;;;;7.85;3.35;;;;;;;;;;5086644;28;20537;-63
2021/03/26 13:35:32;;;;;;;5.97;2.95;;;;;;;;;;5088690;28;20030;-65
2021/03/26 13:38:02;;;;;;;8.02;3.78;;;;;;;;;;5086918;28;20411;-65
2021/03/26 13:40:29;;;;;;;5.30;3.08;;;;;;;;;;5089241;28;20427;-65
2021/03/26 13:43:02;;;;;;;8.60;3.13;;;;;;;;;;5089010;28;20020;-65
2021/03/26 13:45:28;;;;;;;8.45;2.55;;;;;;;;;;5086848;28;20103;-64
2021/03/26 13:47:53;;;;;;;6.80;2.92;;;;;;;;;;5086700;28;20144;-64
2021/03/26 13:50:25;;;;;;;6.97;3.13;;;;;;;;;;5085335;28;20373;-65
2021/03/26 13:53:00;;;;;;;8.45;2.53;;;;;;;;;;5083030;28;20024;-65
2021/03/26 13:55:28;;;;;;;9.98;3.80;;;;;;;;;;5088951;28;20028;-64
2021/03/26 13:57:59;;;;;;;8.07;3.47;;;;;;;;;;5088418;28;20093;-65
2021/03/26 14:00:25;;;;;;;10.32;3.33;;;;;;;;;;5089444;28;20468;-65
2021/03/26 14:02:59;;;;;;;7.85;3.60;;;;;;;;;;5091193;28;20030;-64
2021/03/26 14:05:39;;;;;;;5.78;3.25;;;;;;;;;;5092551;28;20019;-65
2021/03/26 14:08:08;;;;;;;13.30;4.22;;;;;;;;;;5092733;28;20023;-65
2021/03/26 14:10:51;;;;;;;10.23;3.88;;;;;;;;;;5092912;28;20039;-65
2021/03/26 14:13:22;;;;;;;8.07;3.28;;;;;;;;;;5082959;28;20408;-66
2021/03/26 14:16:00;;;;;;;5.28;2.58;;;;;;;;;;5092856;28;20103;-66
2021/03/26 14:18:27;;;;;;;7.75;2.83;;;;;;;;;;5083247;28;20147;-65
2021/03/26 14:21:05;;;;;;;9.30;2.63;;;;;;;;;;5092223;28;20103;-65
2021/03/26 14:23:33;;;;;;;7.82;2.53;;;;;;;;;;5091542;28;20008;-67
2021/03/26 14:26:03;;;;;;;8.27;2.60;;;;;;;;;;5092042;28;20824;-65
2021/03/26 14:28:32;;;;;;;5.00;2.28;;;;;;;;;;5090923;28;20028;-65
2021/03/26 14:31:02;;;;;;;6.85;3.42;;;;;;;;;;5092364;28;20032;-66
2021/03/26 14:33:45;;;;;;;6.68;2.05;;;;;;;;;;5092083;28;20115;-65
2021/03/26 14:36:16;;;;;;;5.43;2.22;;;;;;;;;;5083167;28;20024;-64
2021/03/26 14:38:50;;;;;;;3.75;1.70;;;;;;;;;;5090307;28;20633;-64
2021/03/26 14:41:21;;;;;;;7.68;3.10;;;;;;;;;;5090845;28;20454;-65
2021/03/26 14:43:48;;;;;;;7.25;2.55;;;;;;;;;;5091896;28;20089;-65
2021/03/26 14:46:15;;;;;;;6.32;1.88;;;;;;;;;;5089971;28;20032;-64
2021/03/26 14:48:41;;;;;;;2.80;1.77;;;;;;;;;;5092086;28;20020;-64
2021/03/26 14:51:09;;;;;;;5.57;1.73;;;;;;;;;;5090071;28;20073;-64
2021/03/26 14:53:42;;;;;;;3.30;1.83;;;;;;;;;;5091965;28;20767;-65
2021/03/26 14:56:11;;;;;;;7.65;2.30;;;;;;;;;;5092033;28;20035;-64
2021/03/26 14:58:46;;;;;;;7.45;1.75;;;;;;;;;;5083872;28;20020;-63